createdAt,value
2018-01-03T02:17:34.979Z,62.14
2018-01-03T02:47:34.872Z,61.86
2018-01-03T04:32:35.350Z,76.24
2018-01-03T06:32:35.068Z,63.42
2018-01-03T07:47:35.009Z,64.75
2018-01-03T08:02:33.867Z,64.75
2018-01-03T08:32:34.746Z,62.92
2018-01-03T10:17:36.817Z,58.87
2018-01-03T10:32:37.654Z,58.73
2018-01-03T11:02:35.033Z,57.45
2018-01-03T11:17:35.009Z,55.19
2018-01-03T11:32:35.920Z,54.54
2018-01-03T11:47:35.869Z,54.68
2018-01-03T12:02:35.809Z,53.38
2018-01-03T12:17:35.210Z,51.56
2018-01-03T12:32:35.190Z,50.17
2018-01-03T12:47:34.060Z,49.48
2018-01-03T13:02:33.952Z,48.80
2018-01-03T13:17:33.907Z,48.65
2018-01-03T13:32:33.827Z,49.38
2018-01-03T13:47:35.748Z,50.06
2018-01-03T14:02:35.166Z,50.96
2018-01-03T14:17:34.458Z,54.67
2018-01-03T14:32:34.044Z,56.99
2018-01-03T14:47:35.172Z,58.44
2018-01-03T16:32:36.985Z,63.76
2018-01-03T17:17:34.778Z,65.55
2018-01-03T17:32:37.283Z,65.77
2018-01-03T17:47:34.658Z,65.83
2018-01-03T18:02:34.543Z,65.96
2018-01-03T18:17:36.518Z,66.51
2018-01-03T18:32:34.020Z,66.26
2018-01-03T18:47:34.966Z,66.60
2018-01-03T19:02:34.208Z,67.67
2018-01-03T19:17:35.328Z,67.90
2018-01-03T19:32:34.205Z,68.28
2018-01-03T19:47:35.583Z,68.29
2018-01-03T20:02:35.076Z,67.99
2018-01-03T20:17:34.969Z,67.86
2018-01-03T20:32:35.000Z,68.06
2018-01-03T20:47:34.396Z,68.33
2018-01-03T21:02:37.258Z,67.78
2018-01-03T21:17:37.227Z,67.95
2018-01-03T21:32:35.269Z,67.88
2018-01-03T21:47:34.189Z,67.76
2018-01-03T22:02:34.572Z,67.93
2018-01-03T22:17:36.853Z,68.21
2018-01-03T22:32:34.788Z,67.94
2018-01-03T22:47:35.369Z,66.89
2018-01-03T23:02:34.290Z,66.42
2018-01-03T23:17:34.269Z,66.31
2018-01-03T23:32:34.167Z,66.17
2018-01-03T23:47:38.087Z,66.18
